Time;durP1;ratioP1;P1;durP2;ratioP2;P2;SDS_P1;SDS_P2;PMS_P1;PMS_P2;Temp;Humidity;BMP_temperature;BMP_pressure;BME280_temperature;BME280_humidity;BME280_pressure;Samples;Min_cycle;Max_cycle;Signal;HPM_P1;HPM_P2
2022/03/06 07:02:24;;;;;;;30.17;14.35;;;;;;;;;;5010832;24;20412;-82
2022/03/06 07:04:56;;;;;;;32.85;16.65;;;;;;;;;;4931132;29;20519;-82
2022/03/06 07:07:24;;;;;;;33.13;15.90;;;;;;;;;;4929340;29;20054;-83
2022/03/06 07:09:50;;;;;;;39.35;16.35;;;;;;;;;;4930972;29;20055;-84
2022/03/06 07:12:17;;;;;;;32.05;18.10;;;;;;;;;;4931293;29;20162;-83
2022/03/06 07:14:43;;;;;;;29.52;16.67;;;;;;;;;;4927041;29;20052;-84
2022/03/06 07:17:10;;;;;;;33.85;17.33;;;;;;;;;;4935687;29;20087;-85
2022/03/06 07:19:37;;;;;;;36.90;18.30;;;;;;;;;;4918840;29;20117;-83
2022/03/06 07:22:03;;;;;;;40.55;19.55;;;;;;;;;;4934720;29;20095;-84
2022/03/06 07:24:31;;;;;;;42.97;19.70;;;;;;;;;;4924693;29;20092;-83
2022/03/06 07:26:58;;;;;;;40.72;20.15;;;;;;;;;;4930984;29;20520;-85
2022/03/06 07:29:24;;;;;;;35.88;19.42;;;;;;;;;;4934424;29;20051;-85
2022/03/06 07:31:51;;;;;;;42.45;20.48;;;;;;;;;;4927804;29;20524;-82
2022/03/06 07:34:17;;;;;;;42.75;21.13;;;;;;;;;;4926752;29;20075;-84
2022/03/06 07:36:44;;;;;;;47.75;22.00;;;;;;;;;;4924109;29;20056;-84
2022/03/06 07:39:11;;;;;;;41.05;21.58;;;;;;;;;;4927479;29;20055;-84
2022/03/06 07:41:37;;;;;;;45.83;23.35;;;;;;;;;;4935370;29;20075;-84
2022/03/06 07:44:04;;;;;;;43.55;21.13;;;;;;;;;;4934306;29;20047;-83
2022/03/06 07:46:31;;;;;;;47.85;23.67;;;;;;;;;;4935353;29;20080;-83
2022/03/06 07:48:58;;;;;;;46.20;22.40;;;;;;;;;;4929632;29;20072;-85
2022/03/06 07:51:24;;;;;;;48.70;23.98;;;;;;;;;;4929535;29;20047;-84
2022/03/06 07:53:51;;;;;;;48.47;25.38;;;;;;;;;;4929344;29;20119;-84
2022/03/06 07:56:17;;;;;;;54.83;26.58;;;;;;;;;;4929446;29;20044;-85
2022/03/06 07:58:44;;;;;;;50.42;25.90;;;;;;;;;;4930294;29;20043;-84
2022/03/06 08:01:11;;;;;;;56.33;26.25;;;;;;;;;;4929604;29;20063;-84
2022/03/06 08:03:38;;;;;;;64.55;26.95;;;;;;;;;;4930515;29;20568;-85
2022/03/06 08:06:05;;;;;;;60.45;29.08;;;;;;;;;;4930258;29;20067;-84
2022/03/06 08:08:33;;;;;;;64.22;29.65;;;;;;;;;;4934816;29;20051;-85
2022/03/06 08:11:00;;;;;;;67.22;31.00;;;;;;;;;;4932273;29;20091;-84
2022/03/06 08:13:26;;;;;;;60.55;30.25;;;;;;;;;;4930870;29;20059;-84
2022/03/06 08:15:53;;;;;;;66.78;31.38;;;;;;;;;;4931110;29;20155;-86
2022/03/06 08:18:20;;;;;;;59.50;29.48;;;;;;;;;;4936390;29;20047;-85
2022/03/06 08:20:47;;;;;;;74.38;32.47;;;;;;;;;;4928876;29;20059;-85
2022/03/06 08:23:13;;;;;;;69.85;31.80;;;;;;;;;;4929849;29;20478;-86
2022/03/06 08:25:40;;;;;;;74.65;33.85;;;;;;;;;;4931193;29;20510;-86
2022/03/06 08:28:07;;;;;;;68.28;33.15;;;;;;;;;;4935741;29;20083;-86
2022/03/06 08:30:33;;;;;;;74.70;33.17;;;;;;;;;;4933610;29;20060;-85
2022/03/06 08:33:00;;;;;;;76.43;35.40;;;;;;;;;;4929528;29;20135;-84
2022/03/06 08:35:27;;;;;;;78.10;34.08;;;;;;;;;;4927140;29;20043;-86
2022/03/06 08:37:54;;;;;;;70.00;34.97;;;;;;;;;;4931229;29;20043;-84
2022/03/06 08:40:20;;;;;;;77.60;35.97;;;;;;;;;;4929954;29;20119;-85
2022/03/06 08:42:47;;;;;;;83.45;36.75;;;;;;;;;;4934366;29;20540;-87
2022/03/06 08:45:14;;;;;;;83.20;37.85;;;;;;;;;;4916538;29;20178;-84
2022/03/06 08:47:41;;;;;;;81.93;35.97;;;;;;;;;;4930892;29;20056;-85
2022/03/06 08:50:08;;;;;;;85.93;37.65;;;;;;;;;;4931570;29;20123;-86
2022/03/06 08:52:34;;;;;;;73.90;34.00;;;;;;;;;;4929539;29;20051;-87
2022/03/06 08:55:01;;;;;;;78.93;35.15;;;;;;;;;;4932621;29;20472;-85
2022/03/06 08:57:28;;;;;;;86.68;35.80;;;;;;;;;;4929342;29;20424;-85
2022/03/06 08:59:54;;;;;;;76.60;34.30;;;;;;;;;;4930566;29;20079;-85
2022/03/06 09:02:21;;;;;;;83.07;37.08;;;;;;;;;;4931407;29;20078;-87
2022/03/06 09:04:48;;;;;;;79.82;34.00;;;;;;;;;;4930395;29;20076;-87
2022/03/06 09:07:15;;;;;;;74.10;33.55;;;;;;;;;;4931118;29;20111;-86
2022/03/06 09:09:42;;;;;;;77.05;34.50;;;;;;;;;;4946186;28;20082;-86
2022/03/06 09:12:09;;;;;;;76.95;35.47;;;;;;;;;;4912781;29;20060;-85
2022/03/06 09:14:35;;;;;;;80.95;35.03;;;;;;;;;;4945077;28;20071;-85
2022/03/06 09:17:02;;;;;;;75.60;34.08;;;;;;;;;;4931321;29;20082;-86
2022/03/06 09:19:29;;;;;;;75.22;34.75;;;;;;;;;;4923782;29;20066;-88
2022/03/06 09:21:56;;;;;;;73.40;33.38;;;;;;;;;;4918637;29;20130;-86
2022/03/06 09:24:23;;;;;;;80.28;34.53;;;;;;;;;;4929918;29;20059;-87
2022/03/06 09:26:50;;;;;;;78.88;34.33;;;;;;;;;;4933422;29;20504;-86
2022/03/06 09:29:16;;;;;;;79.80;33.50;;;;;;;;;;4928395;29;20568;-86
2022/03/06 09:31:44;;;;;;;76.30;33.00;;;;;;;;;;4910630;29;20110;-86
2022/03/06 09:34:11;;;;;;;73.85;32.95;;;;;;;;;;4930280;29;20051;-86
2022/03/06 09:36:45;;;;;;;78.57;33.97;;;;;;;;;;4933764;28;20505;-86
2022/03/06 09:39:13;;;;;;;75.35;31.67;;;;;;;;;;4938062;28;20059;-85
2022/03/06 09:41:41;;;;;;;70.07;30.88;;;;;;;;;;4929856;29;20051;-88
2022/03/06 09:44:12;;;;;;;73.70;31.95;;;;;;;;;;4903411;29;20091;-86
2022/03/06 09:46:39;;;;;;;72.50;31.38;;;;;;;;;;4927929;29;20067;-88
2022/03/06 09:49:07;;;;;;;72.15;31.17;;;;;;;;;;4916820;29;20139;-86
2022/03/06 09:51:35;;;;;;;69.35;31.45;;;;;;;;;;4929600;29;20047;-84
2022/03/06 09:54:02;;;;;;;71.88;32.20;;;;;;;;;;4933865;29;20055;-85
2022/03/06 09:56:29;;;;;;;68.93;31.15;;;;;;;;;;4928836;29;20048;-84
2022/03/06 09:58:55;;;;;;;69.15;30.95;;;;;;;;;;4927526;29;20055;-85
2022/03/06 10:01:22;;;;;;;68.32;32.08;;;;;;;;;;4917464;29;20100;-85
2022/03/06 10:03:49;;;;;;;77.47;30.83;;;;;;;;;;4911069;29;20055;-84
2022/03/06 10:06:16;;;;;;;68.05;29.67;;;;;;;;;;4909107;29;20078;-84
2022/03/06 10:08:42;;;;;;;69.50;30.65;;;;;;;;;;4893442;29;20055;-83
2022/03/06 10:11:11;;;;;;;72.75;32.80;;;;;;;;;;4909963;29;20469;-83
2022/03/06 10:13:45;;;;;;;;;;;;;;;;;;4910666;29;20076;-83
2022/03/06 10:16:16;;;;;;;71.53;29.42;;;;;;;;;;4905744;29;20042;-84
2022/03/06 10:18:52;;;;;;;67.32;28.92;;;;;;;;;;4910080;29;20052;-83
2022/03/06 10:21:32;;;;;;;78.80;32.05;;;;;;;;;;4913343;29;20075;-83
2022/03/06 10:24:06;;;;;;;68.47;29.67;;;;;;;;;;4912838;29;20048;-83
2022/03/06 10:26:36;;;;;;;66.90;29.63;;;;;;;;;;4913457;29;20058;-83
2022/03/06 10:29:11;;;;;;;67.72;29.95;;;;;;;;;;4904757;29;20067;-82
2022/03/06 10:31:53;;;;;;;61.20;30.30;;;;;;;;;;4913844;29;20052;-83
2022/03/06 10:34:34;;;;;;;72.38;30.10;;;;;;;;;;4908703;29;20072;-83
2022/03/06 10:37:01;;;;;;;65.65;29.05;;;;;;;;;;4909662;29;20467;-83
2022/03/06 10:39:29;;;;;;;62.63;29.88;;;;;;;;;;4906925;29;20074;-82
2022/03/06 10:41:56;;;;;;;64.47;29.52;;;;;;;;;;4908903;29;20465;-84
2022/03/06 10:44:43;;;;;;;65.22;29.40;;;;;;;;;;4908052;29;20676;-84
2022/03/06 10:47:16;;;;;;;66.00;27.80;;;;;;;;;;4908610;29;20048;-84
2022/03/06 10:49:59;;;;;;;60.45;27.42;;;;;;;;;;4910211;29;20048;-83
2022/03/06 10:52:26;;;;;;;57.20;26.85;;;;;;;;;;4913127;29;20464;-84
2022/03/06 10:54:54;;;;;;;64.47;27.38;;;;;;;;;;4914482;29;20084;-84
2022/03/06 10:57:22;;;;;;;58.42;26.90;;;;;;;;;;4910482;29;20549;-85
2022/03/06 10:59:49;;;;;;;61.33;25.17;;;;;;;;;;4912006;29;20072;-85
2022/03/06 11:02:17;;;;;;;61.45;26.98;;;;;;;;;;4927772;28;20071;-86
2022/03/06 11:04:47;;;;;;;59.58;25.30;;;;;;;;;;4932926;29;20048;-84
2022/03/06 11:07:14;;;;;;;55.92;24.20;;;;;;;;;;4932838;29;20044;-85
2022/03/06 11:09:41;;;;;;;56.15;24.77;;;;;;;;;;4933276;29;20047;-85
2022/03/06 11:12:08;;;;;;;59.20;24.85;;;;;;;;;;4931369;29;20475;-85
2022/03/06 11:14:35;;;;;;;60.22;25.80;;;;;;;;;;4931498;29;20071;-83
2022/03/06 11:17:01;;;;;;;56.72;24.63;;;;;;;;;;4930323;29;20405;-84
2022/03/06 11:19:32;;;;;;;54.30;21.60;;;;;;;;;;4910245;29;20453;-84
2022/03/06 11:22:23;;;;;;;58.65;24.30;;;;;;;;;;4932880;29;20048;-85
2022/03/06 11:24:57;;;;;;;52.03;21.63;;;;;;;;;;4914161;29;20048;-85
2022/03/06 11:27:24;;;;;;;53.22;21.98;;;;;;;;;;4929560;28;20055;-85
2022/03/06 11:30:17;;;;;;;49.58;22.05;;;;;;;;;;4928974;29;20055;-85
2022/03/06 11:32:57;;;;;;;55.17;22.25;;;;;;;;;;4912120;29;20043;-85
2022/03/06 11:35:30;;;;;;;45.65;21.25;;;;;;;;;;4922571;29;20059;-84
2022/03/06 11:37:58;;;;;;;54.45;22.02;;;;;;;;;;4928184;29;20119;-83
2022/03/06 11:40:45;;;;;;;51.53;21.42;;;;;;;;;;4919145;29;20965;-84
2022/03/06 11:43:33;;;;;;;58.22;23.27;;;;;;;;;;4926377;29;20418;-84
2022/03/06 11:46:12;;;;;;;51.47;21.48;;;;;;;;;;4931307;29;20043;-84
2022/03/06 11:48:39;;;;;;;50.60;21.45;;;;;;;;;;4912601;29;20131;-83
2022/03/06 11:51:17;;;;;;;48.80;20.92;;;;;;;;;;4928246;28;20099;-82
2022/03/06 11:54:07;;;;;;;;;;;;;;;;;;4929703;29;20483;-82
2022/03/06 11:56:37;;;;;;;46.17;18.98;;;;;;;;;;4929419;29;20026;-82
2022/03/06 11:59:09;;;;;;;46.78;19.45;;;;;;;;;;4929578;29;20055;-82
2022/03/06 12:01:45;;;;;;;42.80;18.70;;;;;;;;;;4928672;29;20119;-83
2022/03/06 12:04:16;;;;;;;48.20;19.42;;;;;;;;;;4927595;29;20130;-83
2022/03/06 12:06:49;;;;;;;52.08;19.58;;;;;;;;;;4928907;29;20575;-83
2022/03/06 12:09:21;;;;;;;47.67;18.70;;;;;;;;;;4928505;29;20119;-84
2022/03/06 12:11:51;;;;;;;43.20;16.77;;;;;;;;;;4929229;29;20210;-83
2022/03/06 12:14:25;;;;;;;42.00;17.25;;;;;;;;;;4927851;29;20154;-83
2022/03/06 12:17:00;;;;;;;37.85;16.98;;;;;;;;;;4922757;28;20051;-83
2022/03/06 12:19:54;;;;;;;44.85;15.75;;;;;;;;;;4927453;29;20054;-83
2022/03/06 12:22:29;;;;;;;37.25;16.60;;;;;;;;;;4926520;28;20052;-83
2022/03/06 12:25:11;;;;;;;38.13;16.83;;;;;;;;;;4925685;29;20095;-83
2022/03/06 12:28:02;;;;;;;37.72;16.50;;;;;;;;;;4926162;29;20075;-82
2022/03/06 12:30:30;;;;;;;54.72;23.88;;;;;;;;;;4924073;29;20044;-81
2022/03/06 12:32:57;;;;;;;51.00;21.05;;;;;;;;;;4926199;29;20040;-82
2022/03/06 12:35:25;;;;;;;81.85;29.17;;;;;;;;;;4926317;28;20047;-83
2022/03/06 12:37:54;;;;;;;45.77;21.40;;;;;;;;;;4923394;29;20075;-83
2022/03/06 12:40:24;;;;;;;45.05;20.35;;;;;;;;;;4909520;29;20484;-83
2022/03/06 12:42:58;;;;;;;56.20;21.50;;;;;;;;;;4925261;28;20059;-83
2022/03/06 12:45:25;;;;;;;64.97;25.50;;;;;;;;;;4927409;28;20130;-83
2022/03/06 12:47:52;;;;;;;72.30;27.08;;;;;;;;;;4929395;29;20158;-85
2022/03/06 12:50:21;;;;;;;121.93;41.17;;;;;;;;;;4910424;29;20043;-85
2022/03/06 12:52:48;;;;;;;;;;;;;;;;;;4929870;29;20051;-84
2022/03/06 12:55:18;;;;;;;84.55;30.25;;;;;;;;;;4929715;29;20383;-84
2022/03/06 12:57:53;;;;;;;99.93;34.92;;;;;;;;;;4929590;29;20615;-85
2022/03/06 13:00:23;;;;;;;47.17;19.42;;;;;;;;;;4928989;28;20111;-82
2022/03/06 13:02:52;;;;;;;36.28;15.10;;;;;;;;;;4929389;28;20486;-86
2022/03/06 13:05:23;;;;;;;39.90;16.90;;;;;;;;;;4927444;29;20162;-84
2022/03/06 13:07:50;;;;;;;36.75;17.20;;;;;;;;;;4925474;28;20063;-83
2022/03/06 13:10:18;;;;;;;39.08;16.75;;;;;;;;;;4927541;29;20583;-84
2022/03/06 13:12:46;;;;;;;37.15;15.65;;;;;;;;;;4924231;29;20043;-85
2022/03/06 13:15:13;;;;;;;38.50;15.65;;;;;;;;;;4927869;29;20055;-85
2022/03/06 13:17:41;;;;;;;38.00;15.98;;;;;;;;;;4928060;29;20052;-87
2022/03/06 13:20:09;;;;;;;42.70;16.42;;;;;;;;;;4923171;28;20047;-85
2022/03/06 13:22:36;;;;;;;38.55;16.42;;;;;;;;;;4928681;29;20146;-84
2022/03/06 13:25:05;;;;;;;46.70;16.75;;;;;;;;;;4929633;29;20086;-84
2022/03/06 13:27:37;;;;;;;35.60;15.63;;;;;;;;;;4910757;29;20074;-85
2022/03/06 13:30:14;;;;;;;33.63;15.07;;;;;;;;;;4926039;29;20461;-84
2022/03/06 13:32:46;;;;;;;51.58;20.20;;;;;;;;;;4927129;29;20047;-85
2022/03/06 13:35:34;;;;;;;40.40;17.23;;;;;;;;;;4926350;29;20062;-85
2022/03/06 13:38:09;;;;;;;39.77;17.57;;;;;;;;;;4927316;29;20496;-88
2022/03/06 13:40:41;;;;;;;36.65;15.48;;;;;;;;;;4927256;29;20055;-89
2022/03/06 13:43:15;;;;;;;44.60;17.25;;;;;;;;;;4928460;28;20077;-85
2022/03/06 13:45:52;;;;;;;38.83;16.15;;;;;;;;;;4929714;29;20912;-85
2022/03/06 13:48:23;;;;;;;38.20;15.45;;;;;;;;;;4926284;29;20055;-84
2022/03/06 13:50:50;;;;;;;44.40;17.38;;;;;;;;;;4927720;29;20067;-84
2022/03/06 13:53:18;;;;;;;40.88;16.98;;;;;;;;;;4925396;29;20139;-85
2022/03/06 13:55:58;;;;;;;41.40;16.10;;;;;;;;;;4907697;29;20123;-81
2022/03/06 13:58:37;;;;;;;41.75;17.40;;;;;;;;;;4928487;29;20051;-83
2022/03/06 14:01:04;;;;;;;36.33;15.48;;;;;;;;;;4927919;29;21766;-83
2022/03/06 14:03:34;;;;;;;46.20;15.88;;;;;;;;;;4925330;29;20063;-83
2022/03/06 14:06:04;;;;;;;40.22;15.57;;;;;;;;;;4923157;29;20079;-82
2022/03/06 14:08:44;;;;;;;37.60;15.07;;;;;;;;;;4922142;29;20564;-83
2022/03/06 14:11:25;;;;;;;36.13;17.75;;;;;;;;;;4921442;29;20099;-83
2022/03/06 14:13:59;;;;;;;40.50;16.85;;;;;;;;;;4919932;29;20066;-83
2022/03/06 14:16:30;;;;;;;45.55;17.20;;;;;;;;;;4921741;29;20059;-83
2022/03/06 14:19:00;;;;;;;44.00;17.70;;;;;;;;;;4922633;29;20122;-83
2022/03/06 14:21:33;;;;;;;40.55;16.35;;;;;;;;;;4917564;29;20444;-82
2022/03/06 14:24:02;;;;;;;37.42;16.38;;;;;;;;;;4921794;29;20070;-83
2022/03/06 14:26:36;;;;;;;41.75;16.52;;;;;;;;;;4925548;29;20110;-84
2022/03/06 14:29:12;;;;;;;37.17;15.98;;;;;;;;;;4922597;29;20467;-83
2022/03/06 14:31:59;;;;;;;35.38;16.00;;;;;;;;;;4924571;29;20050;-82
2022/03/06 14:34:31;;;;;;;44.83;16.23;;;;;;;;;;4908837;29;20499;-83
2022/03/06 14:36:59;;;;;;;39.92;15.88;;;;;;;;;;4922864;29;20071;-83
2022/03/06 14:39:27;;;;;;;40.67;15.07;;;;;;;;;;4905983;29;20102;-83
2022/03/06 14:41:54;;;;;;;36.17;16.08;;;;;;;;;;4909020;29;20312;-84
2022/03/06 14:44:21;;;;;;;36.75;14.80;;;;;;;;;;4924376;28;20075;-84
2022/03/06 14:46:49;;;;;;;32.63;15.75;;;;;;;;;;4926691;29;20136;-83
2022/03/06 14:49:17;;;;;;;39.35;15.43;;;;;;;;;;4926744;29;20604;-84
2022/03/06 14:51:45;;;;;;;38.33;15.93;;;;;;;;;;4932315;29;20413;-83
2022/03/06 14:54:13;;;;;;;35.88;15.48;;;;;;;;;;4927012;29;20125;-84
2022/03/06 14:56:40;;;;;;;31.43;15.63;;;;;;;;;;4926738;29;20559;-86
2022/03/06 14:59:10;;;;;;;35.45;14.82;;;;;;;;;;4926901;29;20094;-85
2022/03/06 15:01:38;;;;;;;33.33;14.63;;;;;;;;;;4926612;29;20832;-85
2022/03/06 15:04:05;;;;;;;37.50;14.98;;;;;;;;;;4926881;29;20047;-85
2022/03/06 15:06:32;;;;;;;40.13;14.85;;;;;;;;;;4929996;29;20572;-85
2022/03/06 15:08:59;;;;;;;32.00;14.80;;;;;;;;;;4931955;29;20080;-84
2022/03/06 15:11:26;;;;;;;37.00;14.60;;;;;;;;;;4925624;29;20051;-86
2022/03/06 15:13:53;;;;;;;34.17;14.80;;;;;;;;;;4926954;29;20075;-84
2022/03/06 15:16:20;;;;;;;35.85;14.63;;;;;;;;;;4926307;29;20052;-84
2022/03/06 15:18:47;;;;;;;36.33;15.18;;;;;;;;;;4928154;29;20051;-84
2022/03/06 15:21:15;;;;;;;36.35;15.43;;;;;;;;;;4926963;29;20595;-85
2022/03/06 15:23:43;;;;;;;34.97;15.55;;;;;;;;;;4928299;29;20044;-85
2022/03/06 15:26:11;;;;;;;36.58;15.63;;;;;;;;;;4925863;29;20760;-87
2022/03/06 15:28:40;;;;;;;39.80;15.63;;;;;;;;;;4926819;29;20080;-86
2022/03/06 15:31:08;;;;;;;45.13;16.00;;;;;;;;;;4930367;29;20052;-86
2022/03/06 15:33:35;;;;;;;36.42;17.40;;;;;;;;;;4928333;29;20070;-85
2022/03/06 15:36:03;;;;;;;33.50;14.98;;;;;;;;;;4929755;29;20047;-87
2022/03/06 15:38:30;;;;;;;39.08;16.92;;;;;;;;;;4927624;29;20504;-87
2022/03/06 15:40:56;;;;;;;35.97;17.00;;;;;;;;;;4932205;29;20058;-88
2022/03/06 15:43:23;;;;;;;32.38;14.82;;;;;;;;;;4930931;29;20079;-87
2022/03/06 15:45:50;;;;;;;29.27;14.15;;;;;;;;;;4931238;29;20106;-84
2022/03/06 15:48:18;;;;;;;35.75;15.52;;;;;;;;;;4928990;29;20044;-85
2022/03/06 15:50:46;;;;;;;29.42;15.70;;;;;;;;;;4915592;29;20058;-85
2022/03/06 15:53:13;;;;;;;40.33;16.52;;;;;;;;;;4930214;29;20520;-84
2022/03/06 15:55:40;;;;;;;39.00;16.30;;;;;;;;;;4915100;29;20044;-84
2022/03/06 15:58:07;;;;;;;39.13;15.88;;;;;;;;;;4929270;29;20063;-84
2022/03/06 16:00:33;;;;;;;46.75;16.63;;;;;;;;;;4922207;28;20075;-86
2022/03/06 16:03:00;;;;;;;33.53;16.48;;;;;;;;;;4934346;28;20054;-85
2022/03/06 16:05:27;;;;;;;39.28;15.88;;;;;;;;;;4930243;29;20122;-85
2022/03/06 16:07:54;;;;;;;36.60;16.23;;;;;;;;;;4929565;29;20460;-84
2022/03/06 16:10:21;;;;;;;32.45;15.65;;;;;;;;;;4933821;29;20056;-86
2022/03/06 16:12:47;;;;;;;35.25;15.82;;;;;;;;;;4932687;29;20066;-85
2022/03/06 16:15:14;;;;;;;33.83;15.43;;;;;;;;;;4930085;29;20102;-85
2022/03/06 16:17:40;;;;;;;38.58;17.63;;;;;;;;;;4933583;29;20079;-83
2022/03/06 16:20:10;;;;;;;38.28;17.88;;;;;;;;;;4931645;28;20054;-85
2022/03/06 16:22:37;;;;;;;36.00;16.90;;;;;;;;;;4929854;29;20433;-83
2022/03/06 16:25:05;;;;;;;51.95;20.10;;;;;;;;;;4911770;29;20587;-83
2022/03/06 16:27:34;;;;;;;41.53;17.17;;;;;;;;;;4929616;29;20051;-81
2022/03/06 16:30:03;;;;;;;63.60;27.23;;;;;;;;;;4928897;29;20048;-84
2022/03/06 16:32:30;;;;;;;42.85;17.38;;;;;;;;;;4940626;28;20051;-83
2022/03/06 16:34:57;;;;;;;41.67;19.00;;;;;;;;;;4942440;29;20096;-84
2022/03/06 16:37:44;;;;;;;40.05;18.65;;;;;;;;;;4939171;29;20040;-83
2022/03/06 16:40:12;;;;;;;45.88;20.13;;;;;;;;;;4946437;29;20079;-84
2022/03/06 16:42:38;;;;;;;44.72;20.02;;;;;;;;;;4937836;29;20098;-85
2022/03/06 16:45:06;;;;;;;53.05;20.80;;;;;;;;;;4936980;29;20067;-84
2022/03/06 16:47:32;;;;;;;41.65;20.60;;;;;;;;;;4940038;29;20056;-85
2022/03/06 16:50:02;;;;;;;48.38;22.38;;;;;;;;;;4931757;28;20138;-85
2022/03/06 16:52:28;;;;;;;48.45;23.20;;;;;;;;;;4931650;28;20051;-83
2022/03/06 16:54:55;;;;;;;50.50;24.65;;;;;;;;;;4942835;28;20484;-84
2022/03/06 16:57:22;;;;;;;50.40;25.67;;;;;;;;;;4933769;29;20052;-84
2022/03/06 16:59:48;;;;;;;55.13;26.75;;;;;;;;;;4930070;29;20047;-85
2022/03/06 17:02:15;;;;;;;55.65;26.25;;;;;;;;;;4930632;29;20099;-83
2022/03/06 17:04:42;;;;;;;64.85;27.67;;;;;;;;;;4941612;29;20047;-83
2022/03/06 17:07:08;;;;;;;57.28;26.90;;;;;;;;;;4932941;29;20044;-84
2022/03/06 17:09:36;;;;;;;56.65;26.48;;;;;;;;;;4916657;29;20134;-85
2022/03/06 17:12:03;;;;;;;59.22;27.38;;;;;;;;;;4931127;29;20048;-82
2022/03/06 17:14:31;;;;;;;53.50;26.80;;;;;;;;;;4931312;29;20087;-84
2022/03/06 17:17:00;;;;;;;57.47;26.25;;;;;;;;;;4944640;28;20048;-86
2022/03/06 17:19:26;;;;;;;49.15;26.52;;;;;;;;;;4914463;29;20497;-85
2022/03/06 17:21:53;;;;;;;61.33;26.08;;;;;;;;;;4916095;29;20127;-84
2022/03/06 17:24:20;;;;;;;63.83;27.67;;;;;;;;;;4941114;29;20508;-85
2022/03/06 17:26:48;;;;;;;54.78;27.80;;;;;;;;;;4940338;29;20043;-84
2022/03/06 17:29:14;;;;;;;65.03;28.80;;;;;;;;;;4932501;29;20047;-85
2022/03/06 17:31:43;;;;;;;60.42;28.08;;;;;;;;;;4938834;29;20102;-86
2022/03/06 17:34:10;;;;;;;59.78;29.58;;;;;;;;;;4935074;29;20599;-86
2022/03/06 17:36:38;;;;;;;54.22;28.25;;;;;;;;;;4940162;28;20051;-85
2022/03/06 17:39:07;;;;;;;62.70;28.90;;;;;;;;;;4927260;29;20059;-86
2022/03/06 17:41:34;;;;;;;59.67;27.80;;;;;;;;;;4940808;29;20047;-84
2022/03/06 17:44:01;;;;;;;59.47;28.63;;;;;;;;;;4918967;29;20103;-87
2022/03/06 17:46:28;;;;;;;59.88;30.55;;;;;;;;;;4932590;29;20095;-86
2022/03/06 17:48:57;;;;;;;68.47;30.90;;;;;;;;;;4938104;29;20075;-86
2022/03/06 17:51:25;;;;;;;63.65;31.02;;;;;;;;;;4940257;29;20496;-85
2022/03/06 17:53:51;;;;;;;66.20;32.15;;;;;;;;;;4931466;29;20052;-85
2022/03/06 17:56:18;;;;;;;68.22;34.20;;;;;;;;;;4931434;29;20043;-87
2022/03/06 17:58:47;;;;;;;63.10;32.40;;;;;;;;;;4927223;29;20063;-88
2022/03/06 18:01:15;;;;;;;68.60;35.20;;;;;;;;;;4902306;29;20094;-86
2022/03/06 18:03:46;;;;;;;68.82;36.80;;;;;;;;;;4913654;29;20652;-87
2022/03/06 18:06:14;;;;;;;75.82;37.72;;;;;;;;;;4894341;29;20083;-87
2022/03/06 18:08:43;;;;;;;74.97;37.60;;;;;;;;;;4910111;29;20139;-89
2022/03/06 18:11:11;;;;;;;81.35;38.70;;;;;;;;;;4912704;29;20056;-87
2022/03/06 18:13:39;;;;;;;80.38;37.80;;;;;;;;;;4896160;29;20126;-86
2022/03/06 18:16:06;;;;;;;78.65;37.83;;;;;;;;;;4894022;29;20044;-84
2022/03/06 18:18:40;;;;;;;80.45;39.28;;;;;;;;;;4921347;29;20052;-88
2022/03/06 18:21:11;;;;;;;;;;;;;;;;;;4909032;29;20529;-87
2022/03/06 18:23:38;;;;;;;86.60;40.20;;;;;;;;;;4912429;29;19927;-86
2022/03/06 18:26:06;;;;;;;85.40;41.15;;;;;;;;;;4899261;29;20052;-84
2022/03/06 18:28:34;;;;;;;93.40;41.43;;;;;;;;;;4917612;29;20065;-85
2022/03/06 18:31:40;;;;;;;86.45;41.33;;;;;;;;;;4897465;29;20111;-87
2022/03/06 18:34:13;;;;;;;84.05;39.92;;;;;;;;;;4833721;29;21493;-87
2022/03/06 18:36:41;;;;;;;84.53;39.60;;;;;;;;;;4837245;29;20058;-86
2022/03/06 18:39:09;;;;;;;82.23;40.70;;;;;;;;;;4835029;29;20053;-88
2022/03/06 18:41:39;;;;;;;88.35;40.92;;;;;;;;;;4835384;29;20335;-87
2022/03/06 18:44:06;;;;;;;;;;;;;;;;;;4824057;29;20508;-86
2022/03/06 18:46:34;;;;;;;90.47;40.70;;;;;;;;;;4838457;29;19924;-86
2022/03/06 18:49:04;;;;;;;94.15;42.85;;;;;;;;;;4843280;29;20534;-87
2022/03/06 18:51:31;;;;;;;85.53;41.28;;;;;;;;;;4832724;29;20058;-85
2022/03/06 18:53:58;;;;;;;79.30;40.05;;;;;;;;;;4820530;29;20110;-85
2022/03/06 18:56:24;;;;;;;84.07;40.55;;;;;;;;;;4835204;29;20508;-84
2022/03/06 18:58:54;;;;;;;87.53;40.83;;;;;;;;;;4834836;29;20070;-84
2022/03/06 19:01:23;;;;;;;91.13;41.60;;;;;;;;;;4841042;29;20067;-85
2022/03/06 19:03:50;;;;;;;90.40;41.83;;;;;;;;;;4853753;29;20054;-85
2022/03/06 19:06:17;;;;;;;85.50;40.28;;;;;;;;;;4907010;29;20076;-85
2022/03/06 19:09:05;;;;;;;80.75;39.60;;;;;;;;;;4901549;29;20512;-84
2022/03/06 19:11:33;;;;;;;84.72;40.28;;;;;;;;;;4894130;29;20044;-85
2022/03/06 19:14:01;;;;;;;83.20;39.20;;;;;;;;;;4908633;29;20063;-85
2022/03/06 19:16:27;;;;;;;83.47;39.25;;;;;;;;;;4893260;29;20075;-85
2022/03/06 19:18:54;;;;;;;83.20;39.05;;;;;;;;;;4915532;29;20048;-85
2022/03/06 19:21:21;;;;;;;90.00;39.83;;;;;;;;;;4910102;29;20040;-83
2022/03/06 19:23:49;;;;;;;91.10;40.85;;;;;;;;;;4910701;29;20123;-85
2022/03/06 19:26:17;;;;;;;77.80;38.35;;;;;;;;;;4912147;29;20454;-85
2022/03/06 19:28:44;;;;;;;80.35;39.50;;;;;;;;;;4894929;29;20143;-84
2022/03/06 19:31:11;;;;;;;82.95;40.65;;;;;;;;;;4910794;29;20524;-85
2022/03/06 19:33:39;;;;;;;82.03;38.75;;;;;;;;;;4913663;29;20055;-85
2022/03/06 19:36:06;;;;;;;85.78;42.53;;;;;;;;;;4908591;29;20596;-85
2022/03/06 19:38:56;;;;;;;86.30;39.20;;;;;;;;;;4899510;29;20059;-84
2022/03/06 19:41:24;;;;;;;82.55;37.72;;;;;;;;;;4907258;29;20175;-83
2022/03/06 19:43:51;;;;;;;85.03;40.25;;;;;;;;;;4894221;29;20416;-84
2022/03/06 19:46:18;;;;;;;90.03;39.50;;;;;;;;;;4911899;29;20100;-83
2022/03/06 19:48:45;;;;;;;88.28;39.50;;;;;;;;;;4912540;29;20079;-84
2022/03/06 19:51:12;;;;;;;84.35;39.20;;;;;;;;;;4907274;29;20044;-84
2022/03/06 19:53:41;;;;;;;76.30;37.55;;;;;;;;;;4909057;29;20069;-84
2022/03/06 19:56:08;;;;;;;78.70;37.53;;;;;;;;;;4909134;29;20402;-83
2022/03/06 19:58:35;;;;;;;79.38;36.97;;;;;;;;;;4908561;29;20052;-83
2022/03/06 20:01:03;;;;;;;80.25;36.67;;;;;;;;;;4910270;29;20103;-84
2022/03/06 20:03:30;;;;;;;82.22;38.25;;;;;;;;;;4909698;29;20127;-85
2022/03/06 20:05:57;;;;;;;78.45;36.53;;;;;;;;;;4894168;29;20047;-84
2022/03/06 20:08:24;;;;;;;84.43;36.70;;;;;;;;;;4903878;29;20509;-84
2022/03/06 20:10:51;;;;;;;72.30;34.65;;;;;;;;;;4908731;29;20048;-82
2022/03/06 20:13:18;;;;;;;74.13;35.92;;;;;;;;;;4907991;29;20055;-84
2022/03/06 20:15:44;;;;;;;79.85;36.08;;;;;;;;;;4893037;29;20048;-83
2022/03/06 20:18:11;;;;;;;72.50;34.78;;;;;;;;;;4909222;29;20564;-83
2022/03/06 20:20:40;;;;;;;77.25;35.70;;;;;;;;;;4911138;29;20462;-84
2022/03/06 20:23:06;;;;;;;76.53;34.65;;;;;;;;;;4910552;29;20060;-83
2022/03/06 20:25:33;;;;;;;72.95;34.28;;;;;;;;;;4889762;29;20049;-84
2022/03/06 20:28:00;;;;;;;76.65;34.78;;;;;;;;;;4906508;29;20052;-84
2022/03/06 20:30:46;;;;;;;71.10;34.67;;;;;;;;;;4908424;29;20499;-84
2022/03/06 20:33:13;;;;;;;73.90;34.63;;;;;;;;;;4905732;29;20052;-84
2022/03/06 20:35:40;;;;;;;71.70;35.13;;;;;;;;;;4907203;29;20076;-87
2022/03/06 20:38:06;;;;;;;70.30;33.90;;;;;;;;;;4903482;29;20057;-83
2022/03/06 20:40:33;;;;;;;75.60;34.60;;;;;;;;;;4909405;29;20468;-84
2022/03/06 20:43:01;;;;;;;70.82;34.08;;;;;;;;;;4908172;29;20044;-84
2022/03/06 20:45:28;;;;;;;72.65;34.45;;;;;;;;;;4905168;29;20131;-84
2022/03/06 20:47:55;;;;;;;73.47;35.33;;;;;;;;;;4908015;29;20487;-83
2022/03/06 20:50:22;;;;;;;69.72;33.17;;;;;;;;;;4910493;29;20051;-83
2022/03/06 20:52:49;;;;;;;75.28;35.53;;;;;;;;;;4909126;29;20100;-85
2022/03/06 20:55:21;;;;;;;73.63;36.00;;;;;;;;;;4907964;29;20052;-83
2022/03/06 20:57:49;;;;;;;63.72;31.58;;;;;;;;;;4913086;29;20111;-84
2022/03/06 21:00:17;;;;;;;70.63;33.70;;;;;;;;;;4908762;29;20099;-83
2022/03/06 21:02:44;;;;;;;78.70;34.85;;;;;;;;;;4909032;29;20055;-84
2022/03/06 21:05:11;;;;;;;81.13;36.20;;;;;;;;;;4929750;28;20052;-85
2022/03/06 21:07:38;;;;;;;74.13;35.17;;;;;;;;;;4929841;28;20058;-84
2022/03/06 21:10:08;;;;;;;72.45;34.53;;;;;;;;;;4913847;29;20624;-81
2022/03/06 21:12:35;;;;;;;77.50;33.22;;;;;;;;;;4930049;28;20074;-85
2022/03/06 21:15:03;;;;;;;70.95;33.58;;;;;;;;;;4930217;28;20043;-85
2022/03/06 21:17:30;;;;;;;76.13;34.95;;;;;;;;;;4912586;29;20111;-84
2022/03/06 21:19:57;;;;;;;70.38;34.33;;;;;;;;;;4930405;28;20099;-85
2022/03/06 21:22:23;;;;;;;72.22;34.35;;;;;;;;;;4929365;28;20055;-86
2022/03/06 21:24:50;;;;;;;65.80;34.17;;;;;;;;;;4929438;28;20040;-85
2022/03/06 21:27:17;;;;;;;79.28;35.50;;;;;;;;;;4913279;29;20420;-84
2022/03/06 21:29:47;;;;;;;83.78;38.03;;;;;;;;;;4929966;28;20723;-84
2022/03/06 21:32:19;;;;;;;81.07;34.90;;;;;;;;;;4929801;28;20044;-87